createdAt,value
2019-03-22T00:00:10.649Z,18.10
2019-03-22T00:02:19.087Z,18.93
2019-03-22T00:04:24.420Z,15.20
2019-03-22T00:06:29.379Z,17.63
2019-03-22T00:08:34.270Z,15.67
2019-03-22T00:10:39.324Z,14.23
2019-03-22T00:12:44.102Z,14.27
2019-03-22T00:14:49.211Z,13.83
2019-03-22T00:16:54.343Z,13.03
2019-03-22T00:18:59.694Z,13.70
2019-03-22T00:21:05.368Z,13.40
2019-03-22T00:23:10.331Z,13.17
2019-03-22T00:25:15.388Z,12.50
2019-03-22T00:27:22.012Z,12.70
2019-03-22T00:29:26.817Z,11.80
2019-03-22T00:31:32.034Z,12.60
2019-03-22T00:33:37.344Z,13.53
2019-03-22T00:35:42.418Z,14.30
2019-03-22T00:37:47.453Z,12.30
2019-03-22T00:39:53.095Z,11.10
2019-03-22T00:41:58.263Z,11.03
2019-03-22T00:44:03.453Z,11.33
2019-03-22T00:46:09.143Z,11.70
2019-03-22T00:48:14.146Z,11.83
2019-03-22T00:50:18.981Z,11.03
2019-03-22T00:52:24.543Z,10.90
2019-03-22T00:54:29.557Z,11.00
2019-03-22T00:56:34.654Z,10.37
2019-03-22T00:58:40.019Z,11.57
2019-03-22T01:00:44.921Z,11.27
2019-03-22T01:02:50.071Z,10.70
2019-03-22T01:04:55.211Z,13.03
2019-03-22T01:07:00.575Z,10.83
2019-03-22T01:09:06.504Z,11.67
2019-03-22T01:11:12.207Z,10.80
2019-03-22T01:13:17.420Z,9.87
2019-03-22T01:15:22.451Z,10.60
2019-03-22T01:17:30.357Z,10.27
2019-03-22T01:19:35.391Z,10.80
2019-03-22T01:21:40.220Z,12.07
2019-03-22T01:23:45.209Z,10.27
2019-03-22T01:25:50.307Z,10.53
2019-03-22T01:27:59.689Z,9.60
2019-03-22T01:30:07.181Z,10.33
2019-03-22T01:32:12.223Z,10.70
2019-03-22T01:34:21.365Z,10.53
2019-03-22T01:36:27.798Z,9.73
2019-03-22T01:38:35.066Z,10.80
2019-03-22T01:40:41.407Z,10.50
2019-03-22T01:42:46.985Z,10.23
2019-03-22T01:44:52.603Z,9.40
2019-03-22T01:46:59.899Z,9.80
2019-03-22T01:49:05.327Z,9.53
2019-03-22T01:51:10.955Z,10.07
2019-03-22T01:53:15.907Z,11.17
2019-03-22T01:55:22.062Z,10.20
2019-03-22T01:57:28.208Z,9.97
2019-03-22T01:59:33.983Z,10.00
2019-03-22T02:01:39.086Z,9.37
2019-03-22T02:03:44.585Z,10.67
2019-03-22T02:05:49.594Z,10.20
2019-03-22T02:07:55.155Z,10.33
2019-03-22T02:10:00.739Z,10.47
2019-03-22T02:12:06.212Z,9.90
2019-03-22T02:14:12.550Z,10.30
2019-03-22T02:16:17.673Z,9.20
2019-03-22T02:18:22.742Z,9.20
2019-03-22T02:20:27.718Z,10.27
2019-03-22T02:22:32.893Z,10.10
2019-03-22T02:24:37.874Z,9.30
2019-03-22T02:26:42.805Z,9.53
2019-03-22T02:28:48.151Z,9.33
2019-03-22T02:30:53.197Z,9.83
2019-03-22T02:32:58.191Z,10.80
2019-03-22T02:35:03.130Z,10.20
2019-03-22T02:37:08.295Z,9.17
2019-03-22T02:39:13.413Z,9.10
2019-03-22T02:41:18.266Z,9.50
2019-03-22T02:43:23.763Z,8.47
2019-03-22T02:45:28.574Z,10.00
2019-03-22T02:47:33.439Z,9.50
2019-03-22T02:49:39.069Z,9.07
2019-03-22T02:51:44.174Z,9.30
2019-03-22T02:53:49.228Z,8.73
2019-03-22T02:55:55.101Z,9.33
2019-03-22T02:58:00.354Z,8.43
2019-03-22T03:00:06.257Z,9.67
2019-03-22T03:02:12.271Z,9.70
2019-03-22T03:04:17.597Z,9.00
2019-03-22T03:06:23.198Z,8.80
2019-03-22T03:08:28.424Z,9.07
2019-03-22T03:10:33.323Z,9.50
2019-03-22T03:12:38.316Z,9.17
2019-03-22T03:14:43.307Z,9.13
2019-03-22T03:16:49.154Z,10.00
2019-03-22T03:18:54.460Z,7.80
2019-03-22T03:20:59.545Z,8.80
2019-03-22T03:23:04.525Z,8.77
2019-03-22T03:25:09.726Z,10.27
2019-03-22T03:27:17.189Z,8.77
2019-03-22T03:29:22.686Z,8.60
2019-03-22T03:31:27.724Z,8.30
2019-03-22T03:33:32.645Z,8.83
2019-03-22T03:35:37.731Z,8.60
2019-03-22T03:37:43.562Z,8.57
2019-03-22T03:39:48.529Z,8.70
2019-03-22T03:41:54.168Z,8.10
2019-03-22T03:43:59.489Z,8.20
2019-03-22T03:46:04.571Z,9.23
2019-03-22T03:48:10.160Z,9.83
2019-03-22T03:50:16.142Z,8.70
2019-03-22T03:52:21.508Z,9.27
2019-03-22T03:54:27.034Z,8.87
2019-03-22T03:56:32.773Z,8.67
2019-03-22T03:58:51.562Z,8.87
2019-03-22T04:00:44.992Z,9.00
2019-03-22T04:02:50.834Z,8.63
2019-03-22T04:04:56.060Z,8.40
2019-03-22T04:07:00.934Z,8.57
2019-03-22T04:09:08.027Z,8.23
2019-03-22T04:11:13.035Z,8.43
2019-03-22T04:13:21.272Z,9.13
2019-03-22T04:15:27.162Z,9.00
2019-03-22T04:17:32.573Z,8.97
2019-03-22T04:19:37.872Z,9.50
2019-03-22T04:21:43.889Z,9.30
2019-03-22T04:23:49.179Z,8.73
2019-03-22T04:25:54.363Z,8.53
2019-03-22T04:27:59.613Z,8.40
2019-03-22T04:30:04.795Z,7.33
2019-03-22T04:32:09.911Z,7.70
2019-03-22T04:34:14.832Z,7.93
2019-03-22T04:36:19.801Z,8.60
2019-03-22T04:38:25.474Z,8.30
2019-03-22T04:40:30.295Z,8.30
2019-03-22T04:42:37.371Z,7.80
2019-03-22T04:44:42.273Z,8.37
2019-03-22T04:46:47.519Z,8.47
2019-03-22T04:48:52.566Z,8.33
2019-03-22T04:50:58.940Z,7.97
2019-03-22T04:53:04.660Z,8.30
2019-03-22T04:55:09.792Z,7.90
2019-03-22T04:57:15.053Z,8.77
2019-03-22T04:59:20.282Z,8.20
2019-03-22T05:01:25.040Z,8.60
2019-03-22T05:03:30.140Z,8.73
2019-03-22T05:05:34.924Z,8.57
2019-03-22T05:07:40.002Z,8.60
2019-03-22T05:09:45.764Z,9.70
2019-03-22T05:11:58.744Z,9.57
2019-03-22T05:14:07.262Z,9.37
2019-03-22T05:16:13.744Z,9.60
2019-03-22T05:18:19.882Z,9.23
2019-03-22T05:20:25.980Z,10.13
2019-03-22T05:22:32.176Z,9.30
2019-03-22T05:24:37.656Z,10.33
2019-03-22T05:26:42.546Z,10.60
2019-03-22T05:28:47.574Z,10.57
2019-03-22T05:31:38.434Z,9.27
2019-03-22T05:33:43.330Z,10.33
2019-03-22T05:35:48.834Z,11.00
2019-03-22T05:37:53.608Z,9.83
2019-03-22T05:39:58.274Z,10.30
2019-03-22T05:42:03.134Z,11.10
2019-03-22T05:44:08.262Z,10.50
2019-03-22T05:46:13.084Z,9.90
2019-03-22T05:48:18.196Z,10.20
2019-03-22T05:50:23.260Z,9.43
2019-03-22T05:52:27.972Z,10.70
2019-03-22T05:54:32.819Z,10.20
2019-03-22T05:56:37.986Z,10.13
2019-03-22T05:58:43.074Z,10.30
2019-03-22T06:00:47.863Z,11.10
2019-03-22T06:02:52.846Z,11.20
2019-03-22T06:04:57.899Z,11.43
2019-03-22T06:07:03.636Z,25.63
2019-03-22T06:09:10.090Z,463.57
2019-03-22T06:11:15.096Z,465.73
2019-03-22T06:13:19.767Z,676.60
2019-03-22T06:15:24.947Z,717.10
2019-03-22T06:17:29.794Z,811.00
2019-03-22T06:19:34.471Z,1190.53
2019-03-22T06:21:39.632Z,1011.83
2019-03-22T06:23:44.509Z,784.33
2019-03-22T06:25:49.525Z,389.80
2019-03-22T06:27:54.907Z,75.40
2019-03-22T06:29:59.582Z,54.17
2019-03-22T06:32:04.907Z,23.90
2019-03-22T06:34:13.479Z,22.30
2019-03-22T06:36:18.268Z,16.43
2019-03-22T06:38:23.043Z,14.80
2019-03-22T06:40:32.118Z,13.53
2019-03-22T06:42:37.044Z,13.20
2019-03-22T06:44:42.175Z,22.33
2019-03-22T06:46:47.251Z,13.60
2019-03-22T06:48:52.102Z,13.00
2019-03-22T06:50:57.017Z,16.30
2019-03-22T06:53:01.780Z,18.27
2019-03-22T06:55:07.423Z,11.70
2019-03-22T06:57:12.094Z,11.77
2019-03-22T06:59:17.937Z,11.90
2019-03-22T07:01:22.747Z,11.37
2019-03-22T07:03:27.751Z,11.90
2019-03-22T07:05:33.130Z,10.70
2019-03-22T07:07:37.875Z,233.00
2019-03-22T07:09:42.849Z,242.60
2019-03-22T07:11:47.502Z,344.47
2019-03-22T07:13:55.397Z,122.83
2019-03-22T07:16:00.214Z,79.80
2019-03-22T07:18:05.586Z,64.63
2019-03-22T07:20:10.853Z,58.07
2019-03-22T07:22:16.040Z,52.70
2019-03-22T07:24:21.205Z,396.80
2019-03-22T07:26:26.114Z,201.10
2019-03-22T07:28:31.834Z,374.43
2019-03-22T07:30:37.171Z,253.43
2019-03-22T07:32:42.236Z,156.63
2019-03-22T07:34:47.376Z,257.83
2019-03-22T07:36:52.816Z,229.07
2019-03-22T07:38:59.182Z,423.73
2019-03-22T07:41:04.023Z,327.87
2019-03-22T07:43:09.073Z,264.27
2019-03-22T07:45:16.055Z,140.10
2019-03-22T07:47:20.867Z,179.67
2019-03-22T07:49:25.907Z,100.60
2019-03-22T07:51:30.674Z,352.63
2019-03-22T07:53:35.429Z,592.43
2019-03-22T07:55:40.840Z,422.97
2019-03-22T07:57:45.622Z,208.57
2019-03-22T07:59:50.615Z,1999.90
2019-03-22T08:01:56.166Z,537.30
2019-03-22T08:04:01.043Z,148.00
2019-03-22T08:06:06.853Z,869.80
2019-03-22T08:08:11.615Z,118.67
2019-03-22T08:10:18.329Z,135.47
2019-03-22T08:12:23.330Z,272.90
2019-03-22T08:14:28.338Z,677.43
2019-03-22T08:16:34.375Z,242.73
2019-03-22T08:18:39.507Z,282.90
2019-03-22T08:20:44.970Z,190.87
2019-03-22T08:22:50.938Z,207.93
2019-03-22T08:24:56.039Z,419.17
2019-03-22T08:27:01.307Z,1999.90
2019-03-22T08:29:06.034Z,364.30
2019-03-22T08:31:13.054Z,464.33
2019-03-22T08:33:18.190Z,430.10
2019-03-22T08:35:22.971Z,452.73
2019-03-22T08:37:27.730Z,370.37
2019-03-22T08:39:33.121Z,565.87
2019-03-22T08:41:38.854Z,301.20
2019-03-22T08:43:44.144Z,1520.23
2019-03-22T08:45:49.119Z,1224.13
2019-03-22T08:47:54.048Z,820.30
2019-03-22T08:49:59.358Z,300.43
2019-03-22T08:52:04.784Z,176.13
2019-03-22T08:54:09.602Z,180.60
2019-03-22T08:56:15.039Z,340.70
2019-03-22T08:58:20.224Z,1400.90
2019-03-22T09:00:38.326Z,481.20
2019-03-22T09:02:32.526Z,393.37
2019-03-22T09:04:37.309Z,775.13
2019-03-22T09:06:42.645Z,542.73
2019-03-22T09:08:47.982Z,432.17
2019-03-22T09:10:52.806Z,308.60
2019-03-22T09:12:58.249Z,214.90
2019-03-22T09:15:03.367Z,146.90
2019-03-22T09:17:08.091Z,122.90
2019-03-22T09:19:13.545Z,97.57
2019-03-22T09:21:18.371Z,519.60
2019-03-22T09:23:23.072Z,223.77
2019-03-22T09:25:28.488Z,127.47
2019-03-22T09:27:33.286Z,888.90
2019-03-22T09:29:39.751Z,235.80
2019-03-22T09:31:45.039Z,245.37
2019-03-22T09:33:49.771Z,211.80
2019-03-22T09:35:54.674Z,186.70
2019-03-22T09:38:12.037Z,177.67
2019-03-22T09:40:08.448Z,646.73
2019-03-22T09:42:13.137Z,485.50
2019-03-22T09:44:18.294Z,847.00
2019-03-22T09:46:23.444Z,1999.90
2019-03-22T09:48:28.483Z,928.73
2019-03-22T09:50:33.693Z,503.67
2019-03-22T09:52:38.596Z,490.10
2019-03-22T09:54:43.448Z,637.47
2019-03-22T09:56:48.802Z,1999.90
2019-03-22T09:58:53.854Z,1999.90
2019-03-22T10:00:58.851Z,480.63
2019-03-22T10:03:04.185Z,433.80
2019-03-22T10:05:08.889Z,407.20
2019-03-22T10:07:13.993Z,353.30
2019-03-22T10:09:18.980Z,325.57
2019-03-22T10:11:23.694Z,315.70
2019-03-22T10:13:28.395Z,323.33
2019-03-22T10:15:33.147Z,398.07
2019-03-22T10:17:37.853Z,323.93
2019-03-22T10:19:42.865Z,288.63
2019-03-22T10:21:48.287Z,272.17
2019-03-22T10:23:53.162Z,279.87
2019-03-22T10:25:57.873Z,250.27
2019-03-22T10:28:03.111Z,245.50
2019-03-22T10:30:08.151Z,260.23
2019-03-22T10:32:12.852Z,829.47
2019-03-22T10:34:18.670Z,1982.03
2019-03-22T10:36:23.587Z,794.67
2019-03-22T10:38:32.175Z,636.57
2019-03-22T10:40:37.092Z,482.50
2019-03-22T10:42:41.989Z,1265.40
2019-03-22T10:44:46.990Z,544.20
2019-03-22T10:46:52.151Z,472.27
2019-03-22T10:49:01.852Z,964.57
2019-03-22T10:51:06.561Z,557.60
2019-03-22T10:53:11.572Z,502.07
2019-03-22T10:55:29.267Z,1999.90
2019-03-22T10:57:23.051Z,579.93
2019-03-22T10:59:28.518Z,493.23
2019-03-22T11:01:46.465Z,625.63
2019-03-22T11:03:40.664Z,976.30
2019-03-22T11:05:45.431Z,512.07
2019-03-22T11:07:50.143Z,866.30
2019-03-22T11:09:55.022Z,1937.07
2019-03-22T11:11:59.734Z,576.00
2019-03-22T11:14:05.057Z,930.80
2019-03-22T11:16:09.834Z,546.27
2019-03-22T11:18:14.865Z,484.63
2019-03-22T11:20:20.010Z,467.27
2019-03-22T11:22:24.783Z,420.60
2019-03-22T11:24:29.523Z,400.77
2019-03-22T11:26:34.663Z,374.13
2019-03-22T11:28:39.514Z,352.53
2019-03-22T11:30:44.321Z,352.47
2019-03-22T11:32:49.537Z,319.83
2019-03-22T11:34:55.530Z,311.53
2019-03-22T11:37:00.649Z,584.63
2019-03-22T11:39:15.375Z,519.13
2019-03-22T11:41:16.032Z,426.80
2019-03-22T11:43:20.810Z,437.57
2019-03-22T11:45:26.590Z,440.90
2019-03-22T11:47:31.633Z,447.90
2019-03-22T11:49:36.840Z,607.10
2019-03-22T11:51:42.076Z,487.10
2019-03-22T11:53:46.755Z,477.80
2019-03-22T11:55:51.756Z,460.70
2019-03-22T11:57:56.482Z,448.20
2019-03-22T12:00:01.186Z,1388.97
2019-03-22T12:02:05.993Z,532.33
2019-03-22T12:04:11.923Z,474.17
2019-03-22T12:06:17.191Z,455.37
2019-03-22T12:08:22.073Z,666.67
2019-03-22T12:10:27.186Z,455.70
2019-03-22T12:12:32.030Z,433.50
2019-03-22T12:14:36.706Z,413.70
2019-03-22T12:16:41.855Z,406.50
2019-03-22T12:18:46.976Z,394.37
2019-03-22T12:20:51.694Z,549.40
2019-03-22T12:22:56.824Z,725.53
2019-03-22T12:25:01.549Z,446.17
2019-03-22T12:27:07.403Z,473.53
2019-03-22T12:29:12.734Z,1178.30
2019-03-22T12:31:19.942Z,543.93
2019-03-22T12:33:25.019Z,508.97
2019-03-22T12:35:30.877Z,502.57
2019-03-22T12:37:35.780Z,499.40
2019-03-22T12:39:41.907Z,539.57
2019-03-22T12:41:46.872Z,1999.90
2019-03-22T12:43:51.758Z,1689.70
2019-03-22T12:45:57.102Z,688.40
2019-03-22T12:48:07.302Z,610.53
2019-03-22T12:50:12.246Z,521.33
2019-03-22T12:52:17.025Z,485.03
2019-03-22T12:54:22.557Z,463.93
2019-03-22T12:56:28.282Z,468.90
2019-03-22T12:58:35.201Z,474.63
2019-03-22T13:00:40.636Z,497.53
2019-03-22T13:02:45.871Z,496.50
2019-03-22T13:04:52.779Z,1981.83
2019-03-22T13:06:58.807Z,548.27
2019-03-22T13:09:03.723Z,561.70
2019-03-22T13:11:11.871Z,563.87
2019-03-22T13:13:17.402Z,551.17
2019-03-22T13:15:22.850Z,571.03
2019-03-22T13:17:27.941Z,564.43
2019-03-22T13:19:33.267Z,584.60
2019-03-22T13:21:37.953Z,607.97
2019-03-22T13:23:42.947Z,613.87
2019-03-22T13:25:48.918Z,619.60
2019-03-22T13:27:55.142Z,607.60
2019-03-22T13:30:00.119Z,594.50
2019-03-22T13:32:05.221Z,593.27
2019-03-22T13:34:10.306Z,595.00
2019-03-22T13:36:16.996Z,581.17
2019-03-22T13:38:25.476Z,567.57
2019-03-22T13:40:30.743Z,584.93
2019-03-22T13:42:35.568Z,614.77
2019-03-22T13:44:40.606Z,646.83
2019-03-22T13:46:45.355Z,658.80
2019-03-22T13:48:50.758Z,661.77
2019-03-22T13:50:56.594Z,702.20
2019-03-22T13:53:03.063Z,652.40
2019-03-22T13:55:08.120Z,645.10
2019-03-22T13:57:13.476Z,737.33
2019-03-22T13:59:18.377Z,1021.53
2019-03-22T14:01:28.702Z,639.83
2019-03-22T14:03:34.389Z,665.07
2019-03-22T14:05:48.638Z,1999.90
2019-03-22T14:07:53.707Z,718.23
2019-03-22T14:09:58.859Z,708.50
2019-03-22T14:12:03.603Z,715.57
2019-03-22T14:14:08.423Z,720.13
2019-03-22T14:16:14.762Z,711.73
2019-03-22T14:18:24.924Z,677.60
2019-03-22T14:20:30.011Z,669.87
2019-03-22T14:22:34.989Z,666.17
2019-03-22T14:24:39.998Z,652.00
2019-03-22T14:26:45.281Z,643.07
2019-03-22T14:28:52.223Z,616.37
2019-03-22T14:30:56.962Z,720.37
2019-03-22T14:33:12.824Z,887.00
2019-03-22T14:35:12.321Z,606.03
2019-03-22T14:37:17.094Z,671.67
2019-03-22T14:39:21.938Z,723.33
2019-03-22T14:41:27.118Z,634.40
2019-03-22T14:43:32.035Z,623.63
2019-03-22T14:45:37.373Z,650.03
2019-03-22T14:47:42.534Z,614.10
2019-03-22T14:49:48.616Z,639.33
2019-03-22T14:51:54.349Z,634.70
2019-03-22T14:54:00.152Z,647.07
2019-03-22T14:56:06.731Z,679.83
2019-03-22T14:58:12.252Z,686.00
2019-03-22T15:00:17.280Z,673.70
2019-03-22T15:02:22.115Z,1755.93
2019-03-22T15:04:27.076Z,707.53
2019-03-22T15:06:33.378Z,639.40
2019-03-22T15:08:38.643Z,631.03
2019-03-22T15:10:43.567Z,654.07
2019-03-22T15:12:49.865Z,1111.97
2019-03-22T15:15:06.916Z,1171.30
2019-03-22T15:17:23.268Z,718.40
2019-03-22T15:19:45.634Z,1999.90
2019-03-22T15:22:02.830Z,870.90
2019-03-22T15:24:32.538Z,663.80
2019-03-22T15:26:59.935Z,748.10
2019-03-22T15:29:32.410Z,695.47
2019-03-22T15:31:56.443Z,826.23
2019-03-22T15:34:18.617Z,749.77
2019-03-22T15:36:41.158Z,1183.13
2019-03-22T15:39:09.958Z,588.50
2019-03-22T15:41:15.017Z,565.60
2019-03-22T15:43:19.751Z,554.17
2019-03-22T15:45:24.462Z,534.10
2019-03-22T15:47:29.445Z,1205.67
2019-03-22T15:49:34.177Z,831.63
2019-03-22T15:51:40.024Z,775.13
2019-03-22T15:53:45.309Z,689.90
2019-03-22T15:55:50.291Z,713.80
2019-03-22T15:57:55.538Z,693.93
2019-03-22T16:00:00.470Z,694.27
2019-03-22T16:02:05.830Z,697.50
2019-03-22T16:04:11.311Z,652.40
2019-03-22T16:06:16.264Z,647.27
2019-03-22T16:08:21.339Z,621.50
2019-03-22T16:10:26.691Z,868.63
2019-03-22T16:12:31.580Z,647.57
2019-03-22T16:14:37.034Z,606.67
2019-03-22T16:16:42.025Z,609.87
2019-03-22T16:18:48.800Z,597.17
2019-03-22T16:20:59.908Z,581.20
2019-03-22T16:23:01.078Z,574.00
2019-03-22T16:25:08.697Z,565.43
2019-03-22T16:27:14.316Z,570.53
2019-03-22T16:29:20.142Z,708.10
2019-03-22T16:31:24.957Z,768.73
2019-03-22T16:33:30.393Z,1010.13
2019-03-22T16:35:35.504Z,1334.00
2019-03-22T16:37:40.749Z,576.33
2019-03-22T16:39:46.160Z,972.53
2019-03-22T16:41:51.138Z,577.40
2019-03-22T16:43:56.372Z,573.27
2019-03-22T16:46:01.560Z,646.93
2019-03-22T16:48:06.433Z,552.10
2019-03-22T16:50:23.280Z,677.70
2019-03-22T16:52:28.732Z,974.50
2019-03-22T16:54:33.628Z,1052.77
2019-03-22T16:56:38.385Z,942.43
2019-03-22T16:58:43.530Z,770.63
2019-03-22T17:00:50.067Z,668.47
2019-03-22T17:02:54.924Z,1999.90
2019-03-22T17:05:00.341Z,791.63
2019-03-22T17:07:05.209Z,662.60
2019-03-22T17:09:10.054Z,1395.87
2019-03-22T17:11:15.384Z,1125.37
2019-03-22T17:13:20.428Z,793.77
2019-03-22T17:15:25.274Z,785.07
2019-03-22T17:17:30.433Z,753.43
2019-03-22T17:19:35.377Z,708.10
2019-03-22T17:21:40.225Z,608.33
2019-03-22T17:23:45.451Z,677.47
2019-03-22T17:25:50.237Z,622.60
2019-03-22T17:27:54.951Z,636.27
2019-03-22T17:30:00.022Z,660.90
2019-03-22T17:32:04.913Z,660.93
2019-03-22T17:34:14.220Z,630.13
2019-03-22T17:36:16.655Z,622.40
2019-03-22T17:38:21.522Z,486.17
2019-03-22T17:40:26.451Z,483.57
2019-03-22T17:42:31.202Z,1547.27
2019-03-22T17:44:36.048Z,871.23
2019-03-22T17:46:40.952Z,619.37
2019-03-22T17:48:46.047Z,925.87
2019-03-22T17:50:50.809Z,1035.33
2019-03-22T17:52:55.600Z,580.90
2019-03-22T17:55:00.834Z,439.03
2019-03-22T17:57:05.571Z,405.93
2019-03-22T17:59:10.449Z,445.53
2019-03-22T18:01:15.599Z,577.27
2019-03-22T18:03:20.294Z,599.50
2019-03-22T18:05:25.285Z,613.40
2019-03-22T18:07:30.055Z,605.30
2019-03-22T18:09:34.902Z,589.60
2019-03-22T18:11:39.622Z,574.77
2019-03-22T18:13:44.671Z,566.07
2019-03-22T18:15:49.463Z,690.13
2019-03-22T18:17:54.253Z,1339.23
2019-03-22T18:19:59.307Z,901.80
2019-03-22T18:22:04.128Z,1538.67
2019-03-22T18:24:08.866Z,1240.50
2019-03-22T18:26:14.327Z,901.80
2019-03-22T18:28:19.066Z,1167.67
2019-03-22T18:30:23.812Z,948.57
2019-03-22T18:32:28.681Z,992.70
2019-03-22T18:34:34.853Z,1296.27
2019-03-22T18:36:39.849Z,1587.50
2019-03-22T18:38:44.869Z,1146.97
2019-03-22T18:40:49.689Z,985.13
2019-03-22T18:42:54.434Z,1254.87
2019-03-22T18:44:59.712Z,1220.57
2019-03-22T18:47:04.571Z,1545.93
2019-03-22T18:49:09.311Z,1096.93
2019-03-22T18:51:14.986Z,1296.17
2019-03-22T18:53:19.722Z,1010.47
2019-03-22T18:55:28.630Z,871.77
2019-03-22T18:57:36.000Z,795.53
2019-03-22T18:59:42.986Z,712.43
2019-03-22T19:01:47.846Z,657.93
2019-03-22T19:03:53.054Z,614.40
2019-03-22T19:06:04.331Z,580.57
2019-03-22T19:08:10.151Z,546.83
2019-03-22T19:10:15.446Z,1104.87
2019-03-22T19:12:23.358Z,753.27
2019-03-22T19:14:29.279Z,605.90
2019-03-22T19:16:35.603Z,1222.93
2019-03-22T19:18:40.940Z,903.17
2019-03-22T19:20:46.023Z,1204.67
2019-03-22T19:22:51.614Z,1368.97
2019-03-22T19:24:56.871Z,1338.80
2019-03-22T19:27:01.625Z,967.87
2019-03-22T19:29:08.119Z,723.13
2019-03-22T19:31:13.861Z,1120.10
2019-03-22T19:33:19.144Z,1359.13
2019-03-22T19:35:27.082Z,1318.30
2019-03-22T19:37:33.426Z,1234.90
2019-03-22T19:39:38.587Z,972.63
2019-03-22T19:41:45.196Z,813.90
2019-03-22T19:43:50.255Z,673.10
2019-03-22T19:45:59.820Z,589.97
2019-03-22T19:48:07.420Z,521.73
2019-03-22T19:50:16.933Z,683.20
2019-03-22T19:52:23.112Z,654.87
2019-03-22T19:54:28.128Z,705.67
2019-03-22T19:56:33.812Z,723.00
2019-03-22T19:58:38.932Z,711.17
2019-03-22T20:00:44.229Z,694.20
2019-03-22T20:02:49.914Z,746.43
2019-03-22T20:05:04.754Z,650.07
2019-03-22T20:07:07.029Z,618.43
2019-03-22T20:09:14.360Z,611.63
2019-03-22T20:11:20.515Z,745.70
2019-03-22T20:13:25.708Z,1212.30
2019-03-22T20:15:31.131Z,737.90
2019-03-22T20:17:35.962Z,640.67
2019-03-22T20:19:41.443Z,1152.07
2019-03-22T20:21:50.724Z,1303.87
2019-03-22T20:23:55.529Z,760.30
2019-03-22T20:26:00.846Z,1078.07
2019-03-22T20:28:23.603Z,1114.83
2019-03-22T20:30:34.751Z,723.40
2019-03-22T20:32:41.081Z,608.03
2019-03-22T20:34:46.029Z,684.53
2019-03-22T20:36:55.025Z,612.03
2019-03-22T20:39:00.962Z,775.80
2019-03-22T20:41:10.876Z,1135.80
2019-03-22T20:43:16.414Z,900.87
2019-03-22T20:45:24.360Z,661.77
2019-03-22T20:47:27.730Z,604.50
2019-03-22T20:49:33.039Z,568.13
2019-03-22T20:51:39.178Z,497.87
2019-03-22T20:53:44.875Z,463.23
2019-03-22T20:55:49.576Z,519.10
2019-03-22T20:57:55.686Z,947.93
2019-03-22T21:00:00.509Z,1565.27
2019-03-22T21:02:06.920Z,835.10
2019-03-22T21:04:12.732Z,538.37
2019-03-22T21:06:17.499Z,509.30
2019-03-22T21:08:26.460Z,674.67
2019-03-22T21:10:33.003Z,593.37
2019-03-22T21:12:38.666Z,497.77
2019-03-22T21:14:44.031Z,655.00
2019-03-22T21:17:01.898Z,665.00
2019-03-22T21:19:11.580Z,660.80
2019-03-22T21:21:18.736Z,458.77
2019-03-22T21:23:35.731Z,401.37
2019-03-22T21:25:31.675Z,377.17
2019-03-22T21:27:36.790Z,362.13
2019-03-22T21:29:44.390Z,548.00
2019-03-22T21:31:48.580Z,555.57
2019-03-22T21:33:53.494Z,902.47
2019-03-22T21:36:01.621Z,1232.33
2019-03-22T21:38:11.062Z,653.07
2019-03-22T21:40:18.620Z,1066.87
2019-03-22T21:42:23.706Z,928.47
2019-03-22T21:44:29.653Z,897.77
2019-03-22T21:46:34.311Z,789.83
2019-03-22T21:48:40.727Z,725.90
2019-03-22T21:50:45.419Z,652.00
2019-03-22T21:52:51.597Z,594.97
2019-03-22T21:54:56.764Z,577.23
2019-03-22T21:57:02.559Z,587.00
2019-03-22T21:59:07.324Z,580.73
2019-03-22T22:01:12.886Z,559.27
2019-03-22T22:03:22.743Z,557.70
2019-03-22T22:05:58.927Z,548.00
2019-03-22T22:08:13.036Z,534.27
2019-03-22T22:10:20.360Z,519.80
2019-03-22T22:12:26.301Z,515.67
2019-03-22T22:14:40.482Z,512.13
2019-03-22T22:16:37.957Z,564.53
2019-03-22T22:18:45.814Z,775.77
2019-03-22T22:20:52.944Z,661.40
2019-03-22T22:23:02.398Z,645.97
2019-03-22T22:25:07.856Z,514.03
2019-03-22T22:27:14.379Z,502.40
2019-03-22T22:29:20.031Z,495.60
2019-03-22T22:31:25.297Z,619.70
2019-03-22T22:33:30.526Z,659.00
2019-03-22T22:35:37.274Z,537.53
2019-03-22T22:37:42.300Z,480.70
2019-03-22T22:39:47.495Z,589.37
2019-03-22T22:41:54.329Z,1159.30
2019-03-22T22:43:59.466Z,838.37
2019-03-22T22:46:04.915Z,541.23
2019-03-22T22:48:09.598Z,512.77
2019-03-22T22:50:15.202Z,597.50
2019-03-22T22:52:21.550Z,648.00
2019-03-22T22:54:26.322Z,810.27
2019-03-22T22:56:31.530Z,670.13
2019-03-22T22:58:37.253Z,836.83
2019-03-22T23:00:43.507Z,821.83
2019-03-22T23:02:49.397Z,719.07
2019-03-22T23:04:54.625Z,764.07
2019-03-22T23:07:11.860Z,675.73
2019-03-22T23:09:16.571Z,635.30
2019-03-22T23:11:21.943Z,629.03
2019-03-22T23:13:27.116Z,621.20
2019-03-22T23:15:32.306Z,609.90
2019-03-22T23:17:37.732Z,732.53
2019-03-22T23:19:43.090Z,611.40
2019-03-22T23:21:50.978Z,696.23
2019-03-22T23:23:55.990Z,780.93
2019-03-22T23:26:02.298Z,819.67
2019-03-22T23:28:09.687Z,784.97
2019-03-22T23:30:18.539Z,767.87
2019-03-22T23:32:24.712Z,766.53
2019-03-22T23:34:32.966Z,786.27
2019-03-22T23:36:41.341Z,846.93
2019-03-22T23:38:46.910Z,893.20
2019-03-22T23:40:53.929Z,900.33
2019-03-22T23:43:02.177Z,900.93
2019-03-22T23:45:09.016Z,894.53
2019-03-22T23:47:14.377Z,880.40
2019-03-22T23:49:20.780Z,869.83
2019-03-22T23:51:26.415Z,859.00
2019-03-22T23:53:32.270Z,850.67
2019-03-22T23:55:37.564Z,840.57
2019-03-22T23:57:42.395Z,828.40
2019-03-22T23:59:47.268Z,843.60
